Time;durP1;ratioP1;P1;durP2;ratioP2;P2;SDS_P1;SDS_P2;PMS_P1;PMS_P2;Temp;Humidity;BMP_temperature;BMP_pressure;BME280_temperature;BME280_humidity;BME280_pressure;Samples;Min_cycle;Max_cycle;Signal;HPM_P1;HPM_P2
2023/05/05 00:00:54;;;;;;;8.65;5.80;;;11.90;84.30;;;;;;5094609;28;20197;-67
2023/05/05 00:03:22;;;;;;;6.97;4.40;;;11.80;83.90;;;;;;5094658;28;20622;-67
2023/05/05 00:05:49;;;;;;;5.95;5.35;;;11.70;84.80;;;;;;5094544;28;20247;-67
2023/05/05 00:08:17;;;;;;;7.07;5.25;;;11.60;85.30;;;;;;5094092;28;20229;-67
2023/05/05 00:10:46;;;;;;;6.80;5.28;;;11.50;85.80;;;;;;5093373;28;20733;-67
2023/05/05 00:13:13;;;;;;;7.70;5.65;;;11.40;86.80;;;;;;5094278;28;20193;-67
2023/05/05 00:15:41;;;;;;;9.02;6.68;;;11.40;87.30;;;;;;5094033;28;20561;-67
2023/05/05 00:18:10;;;;;;;14.45;6.53;;;11.30;87.70;;;;;;5094291;28;20191;-67
2023/05/05 00:20:37;;;;;;;7.22;5.97;;;11.30;87.90;;;;;;5093826;28;20280;-67
2023/05/05 00:23:04;;;;;;;8.73;6.35;;;11.30;88.40;;;;;;5094017;28;20192;-67
2023/05/05 00:25:31;;;;;;;7.70;5.30;;;11.30;88.50;;;;;;5093780;28;20617;-67
2023/05/05 00:27:58;;;;;;;6.88;5.97;;;11.40;88.60;;;;;;5093954;28;20386;-67
2023/05/05 00:30:26;;;;;;;6.22;5.10;;;11.40;88.90;;;;;;5094125;28;20219;-68
2023/05/05 00:32:54;;;;;;;8.43;5.90;;;11.40;89.00;;;;;;5093977;28;20199;-68
2023/05/05 00:35:22;;;;;;;5.90;5.10;;;11.50;88.90;;;;;;5094021;28;20229;-68
2023/05/05 00:37:49;;;;;;;6.95;5.88;;;11.50;88.70;;;;;;5093987;28;20288;-68
2023/05/05 00:40:17;;;;;;;8.23;5.60;;;11.40;89.50;;;;;;5093650;28;20185;-68
2023/05/05 00:42:46;;;;;;;7.55;5.55;;;11.40;89.10;;;;;;5093870;28;20247;-68
2023/05/05 00:45:15;;;;;;;5.10;4.50;;;11.40;89.40;;;;;;5093621;28;20297;-68
2023/05/05 00:47:43;;;;;;;8.85;5.38;;;11.40;88.30;;;;;;5093502;28;20288;-67
2023/05/05 00:50:15;;;;;;;6.82;5.38;;;11.30;87.30;;;;;;5092950;28;20300;-68
2023/05/05 00:52:43;;;;;;;8.55;5.32;;;11.30;87.30;;;;;;5093697;28;20524;-68
2023/05/05 00:55:11;;;;;;;7.97;4.95;;;11.20;87.70;;;;;;5093231;28;20224;-67
2023/05/05 00:57:38;;;;;;;9.40;6.00;;;11.20;88.10;;;;;;5093116;28;20246;-68
2023/05/05 01:00:08;;;;;;;8.23;5.35;;;11.10;88.20;;;;;;5093373;28;20232;-67
2023/05/05 01:02:35;;;;;;;6.50;5.80;;;11.10;88.30;;;;;;5092946;28;20193;-68
2023/05/05 01:05:03;;;;;;;12.18;5.90;;;11.10;88.30;;;;;;5093242;28;20292;-68
2023/05/05 01:07:37;;;;;;;8.50;5.93;;;11.00;88.00;;;;;;5093478;28;20549;-67
2023/05/05 01:10:14;;;;;;;6.22;4.68;;;11.00;88.40;;;;;;5093019;28;20299;-68
2023/05/05 01:12:51;;;;;;;6.03;5.43;;;11.00;88.50;;;;;;5093287;28;20193;-68
2023/05/05 01:15:25;;;;;;;5.75;4.85;;;11.00;88.30;;;;;;5092784;28;20284;-67
2023/05/05 01:17:58;;;;;;;6.70;5.00;;;11.00;88.10;;;;;;5093045;28;20192;-68
2023/05/05 01:20:33;;;;;;;8.52;6.13;;;11.00;87.90;;;;;;5092893;28;20189;-68
2023/05/05 01:23:05;;;;;;;6.53;5.68;;;10.90;88.40;;;;;;5093093;28;20224;-68
2023/05/05 01:25:52;;;;;;;6.93;5.28;;;11.00;90.00;;;;;;5093055;28;20195;-67
2023/05/05 01:28:38;;;;;;;7.32;5.72;;;11.00;90.20;;;;;;5092893;28;20239;-67
2023/05/05 01:31:23;;;;;;;7.05;5.95;;;11.00;90.60;;;;;;5092492;28;20216;-67
2023/05/05 01:34:00;;;;;;;7.55;5.22;;;11.10;90.60;;;;;;5092947;28;20272;-67
2023/05/05 01:36:33;;;;;;;8.73;5.38;;;11.10;90.20;;;;;;5092537;28;20197;-67
2023/05/05 01:39:03;;;;;;;6.75;5.15;;;11.10;90.00;;;;;;5093130;28;20216;-67
2023/05/05 01:41:33;;;;;;;6.85;5.50;;;11.10;90.20;;;;;;5092781;28;20318;-68
2023/05/05 01:44:04;;;;;;;5.90;4.95;;;11.10;90.30;;;;;;5092693;28;20655;-67
2023/05/05 01:46:34;;;;;;;6.50;4.22;;;11.20;90.40;;;;;;5092666;28;20709;-68
2023/05/05 01:49:03;;;;;;;7.43;4.65;;;11.20;90.30;;;;;;5092569;28;20281;-68
2023/05/05 01:51:32;;;;;;;5.13;4.60;;;11.20;90.00;;;;;;5092665;28;20556;-68
2023/05/05 01:54:01;;;;;;;4.80;4.30;;;11.20;89.80;;;;;;5092658;28;20238;-67
2023/05/05 01:56:29;;;;;;;6.93;4.80;;;11.20;89.90;;;;;;5092763;28;20197;-68
2023/05/05 01:58:57;;;;;;;6.13;4.30;;;11.20;89.90;;;;;;5092392;28;20236;-68
2023/05/05 02:01:26;;;;;;;6.10;5.03;;;11.20;90.00;;;;;;5092672;28;20284;-67
2023/05/05 02:03:56;;;;;;;9.57;4.50;;;11.30;90.00;;;;;;5092846;28;20713;-67
2023/05/05 02:06:25;;;;;;;6.95;4.57;;;11.20;90.00;;;;;;5092898;28;20189;-68
2023/05/05 02:08:54;;;;;;;5.10;4.60;;;11.20;89.90;;;;;;5092642;28;20254;-67
2023/05/05 02:11:21;;;;;;;7.15;6.25;;;11.20;89.80;;;;;;5092333;28;20225;-67
2023/05/05 02:13:49;;;;;;;6.28;5.03;;;11.10;89.60;;;;;;5092618;28;20662;-67
2023/05/05 02:16:18;;;;;;;6.68;4.90;;;11.00;89.30;;;;;;5091742;28;20221;-67
2023/05/05 02:18:47;;;;;;;7.07;4.85;;;11.00;89.80;;;;;;5092807;28;20941;-67
2023/05/05 02:21:18;;;;;;;6.07;4.45;;;10.90;89.70;;;;;;5092450;28;20221;-67
2023/05/05 02:23:50;;;;;;;5.85;4.82;;;10.90;89.80;;;;;;5092577;28;20247;-67
2023/05/05 02:26:19;;;;;;;6.75;4.95;;;10.80;90.10;;;;;;5092044;28;20200;-67
2023/05/05 02:28:49;;;;;;;5.78;4.65;;;10.70;90.60;;;;;;5092634;28;20192;-67
2023/05/05 02:31:17;;;;;;;6.85;5.30;;;10.70;90.50;;;;;;5092479;28;20266;-67
2023/05/05 02:33:47;;;;;;;6.88;5.72;;;10.80;90.70;;;;;;5095013;28;20291;-67
2023/05/05 02:36:18;;;;;;;5.90;4.55;;;10.80;90.90;;;;;;5095993;28;20232;-67
2023/05/05 02:38:49;;;;;;;10.70;7.20;;;10.80;91.20;;;;;;5096071;28;20193;-67
2023/05/05 02:41:20;;;;;;;7.40;5.10;;;10.90;91.70;;;;;;5096161;28;20635;-67
2023/05/05 02:43:49;;;;;;;7.90;5.07;;;10.90;91.90;;;;;;5096006;28;20288;-67
2023/05/05 02:46:17;;;;;;;6.57;5.43;;;11.00;92.30;;;;;;5095977;28;20591;-67
2023/05/05 02:48:45;;;;;;;11.55;5.50;;;11.00;92.40;;;;;;5095458;28;20232;-67
2023/05/05 02:51:12;;;;;;;6.90;5.43;;;11.10;92.30;;;;;;5095491;28;20217;-67
2023/05/05 02:53:40;;;;;;;7.25;4.72;;;11.10;92.10;;;;;;5095618;28;20252;-67
2023/05/05 02:56:17;;;;;;;5.30;4.75;;;11.20;92.10;;;;;;5095932;28;20233;-67
2023/05/05 02:58:51;;;;;;;7.22;5.03;;;11.20;92.10;;;;;;5096135;28;20700;-67
2023/05/05 03:01:29;;;;;;;5.70;4.90;;;11.30;92.10;;;;;;5095772;28;20195;-67
2023/05/05 03:04:04;;;;;;;4.72;3.90;;;11.30;91.80;;;;;;5095805;28;20199;-67
2023/05/05 03:06:39;;;;;;;6.38;4.75;;;11.20;91.50;;;;;;5095642;28;20192;-67
2023/05/05 03:09:09;;;;;;;5.60;4.25;;;11.20;91.50;;;;;;5095073;28;20283;-67
2023/05/05 03:11:43;;;;;;;5.57;4.22;;;11.20;91.60;;;;;;5095488;28;20217;-67
2023/05/05 03:14:13;;;;;;;5.85;4.80;;;11.10;91.50;;;;;;5095517;28;20185;-67
2023/05/05 03:16:43;;;;;;;5.50;4.82;;;11.10;91.70;;;;;;5094569;28;20256;-67
2023/05/05 03:19:13;;;;;;;6.10;4.40;;;11.00;91.60;;;;;;5095312;28;20276;-67
2023/05/05 03:21:40;;;;;;;6.57;4.13;;;10.90;91.60;;;;;;5095114;28;20231;-67
2023/05/05 03:24:14;;;;;;;5.28;4.10;;;10.90;91.80;;;;;;5095343;28;20225;-67
2023/05/05 03:26:44;;;;;;;8.38;4.40;;;10.90;91.90;;;;;;5095298;28;20181;-67
2023/05/05 03:29:11;;;;;;;5.55;4.65;;;10.80;91.90;;;;;;5095051;28;20283;-67
2023/05/05 03:31:38;;;;;;;6.13;5.35;;;10.80;92.30;;;;;;5094577;28;20307;-67
2023/05/05 03:34:06;;;;;;;6.43;5.65;;;10.80;92.50;;;;;;5094747;28;20279;-67
2023/05/05 03:36:33;;;;;;;6.18;5.10;;;10.90;92.80;;;;;;5095077;28;20232;-67
2023/05/05 03:39:00;;;;;;;7.32;5.35;;;10.90;93.20;;;;;;5094715;28;20344;-67
2023/05/05 03:41:27;;;;;;;8.23;5.57;;;10.90;93.70;;;;;;5094677;28;20239;-67
2023/05/05 03:43:55;;;;;;;8.05;5.85;;;11.00;94.30;;;;;;5094733;28;20708;-67
2023/05/05 03:46:22;;;;;;;5.90;5.30;;;11.10;94.40;;;;;;5094664;28;20197;-67
2023/05/05 03:48:50;;;;;;;5.85;5.25;;;11.10;94.90;;;;;;5094879;28;20239;-67
2023/05/05 03:51:17;;;;;;;7.75;5.00;;;11.10;94.70;;;;;;5094455;28;20741;-67
2023/05/05 03:53:44;;;;;;;5.90;4.93;;;11.20;94.70;;;;;;5094699;28;20608;-67
2023/05/05 03:56:11;;;;;;;9.05;4.50;;;11.30;94.60;;;;;;5094577;28;20711;-67
2023/05/05 03:58:38;;;;;;;6.35;4.22;;;11.30;94.50;;;;;;5094474;28;20577;-67
2023/05/05 04:01:07;;;;;;;5.70;3.92;;;11.30;94.50;;;;;;5094198;28;20280;-67
2023/05/05 04:03:34;;;;;;;10.68;6.65;;;11.40;94.30;;;;;;5094568;28;20251;-67
2023/05/05 04:06:01;;;;;;;8.52;4.85;;;11.40;94.10;;;;;;5094003;28;20667;-67
2023/05/05 04:08:28;;;;;;;5.38;4.68;;;11.30;93.80;;;;;;5094297;28;20567;-67
2023/05/05 04:10:56;;;;;;;6.47;4.40;;;11.30;93.70;;;;;;5094351;28;20245;-66
2023/05/05 04:13:23;;;;;;;5.10;3.90;;;11.30;93.60;;;;;;5094418;28;20305;-66
2023/05/05 04:15:50;;;;;;;5.05;3.88;;;11.30;93.70;;;;;;5093189;28;20314;-67
2023/05/05 04:18:18;;;;;;;5.22;4.60;;;11.30;93.00;;;;;;5094266;28;20280;-67
2023/05/05 04:20:45;;;;;;;6.35;4.63;;;11.30;92.80;;;;;;5093554;28;20204;-67
2023/05/05 04:23:12;;;;;;;7.93;4.63;;;11.30;92.90;;;;;;5094262;28;20204;-66
2023/05/05 04:25:40;;;;;;;6.82;5.05;;;11.30;93.70;;;;;;5093810;28;20243;-66
2023/05/05 04:28:07;;;;;;;8.55;5.38;;;11.30;94.10;;;;;;5093467;28;20214;-66
2023/05/05 04:30:33;;;;;;;7.88;4.40;;;11.40;94.70;;;;;;5093956;28;20343;-67
2023/05/05 04:33:00;;;;;;;5.43;4.88;;;11.50;94.80;;;;;;5093579;28;20732;-67
2023/05/05 04:35:29;;;;;;;6.35;4.97;;;11.60;94.90;;;;;;5093885;28;20232;-67
2023/05/05 04:37:56;;;;;;;6.53;4.70;;;11.60;94.90;;;;;;5093765;28;20193;-67
2023/05/05 04:40:25;;;;;;;5.65;5.15;;;11.70;94.90;;;;;;5093612;28;20254;-67
2023/05/05 04:42:52;;;;;;;6.00;4.80;;;11.80;94.80;;;;;;5093915;28;20648;-66
2023/05/05 04:45:19;;;;;;;6.65;5.60;;;11.90;94.70;;;;;;5093703;28;20280;-67
2023/05/05 04:47:46;;;;;;;6.50;5.72;;;11.90;94.80;;;;;;5093215;28;20232;-67
2023/05/05 04:50:13;;;;;;;7.63;4.78;;;12.00;94.80;;;;;;5080336;28;20544;-68
2023/05/05 04:52:42;;;;;;;5.55;4.15;;;12.10;94.70;;;;;;5082374;28;20675;-67
2023/05/05 04:55:11;;;;;;;5.40;4.18;;;12.30;94.60;;;;;;5078943;28;20190;-68
2023/05/05 04:57:38;;;;;;;9.50;5.60;;;12.40;94.40;;;;;;5069644;28;20251;-68
2023/05/05 05:00:07;;;;;;;6.00;4.50;;;12.50;94.00;;;;;;5071583;28;20555;-69
2023/05/05 05:02:36;;;;;;;8.90;4.82;;;12.70;93.80;;;;;;5067136;28;20440;-68
2023/05/05 05:05:03;;;;;;;19.27;4.13;;;12.80;93.70;;;;;;5071608;28;20194;-69
2023/05/05 05:07:31;;;;;;;7.03;4.13;;;13.00;93.40;;;;;;5071685;28;20565;-69
2023/05/05 05:10:01;;;;;;;6.60;4.00;;;13.20;93.30;;;;;;5071548;28;20464;-68
2023/05/05 05:12:27;;;;;;;6.20;3.87;;;13.30;93.10;;;;;;5071368;28;21037;-68
2023/05/05 05:14:56;;;;;;;11.63;4.40;;;13.40;92.80;;;;;;5071821;28;20515;-69
2023/05/05 05:17:25;;;;;;;5.43;3.57;;;13.50;92.60;;;;;;5071524;28;20460;-69
2023/05/05 05:19:54;;;;;;;5.63;3.80;;;13.60;92.40;;;;;;5072909;28;20538;-68
2023/05/05 05:22:21;;;;;;;5.43;3.73;;;13.70;92.30;;;;;;5089705;28;20436;-69
2023/05/05 05:24:50;;;;;;;11.00;5.00;;;13.70;92.00;;;;;;5089713;28;20507;-69
2023/05/05 05:27:19;;;;;;;5.60;4.53;;;13.80;91.80;;;;;;5088898;28;20457;-68
2023/05/05 05:29:46;;;;;;;7.87;5.73;;;13.90;91.60;;;;;;5083586;28;20440;-68
2023/05/05 05:32:16;;;;;;;8.27;6.00;;;13.90;91.60;;;;;;5071033;28;20624;-68
2023/05/05 05:34:48;;;;;;;10.73;5.00;;;14.00;91.60;;;;;;5071685;28;20468;-69
2023/05/05 05:37:17;;;;;;;9.10;4.63;;;14.20;91.80;;;;;;5071459;28;20501;-69
2023/05/05 05:39:51;;;;;;;6.87;4.27;;;14.30;92.60;;;;;;5071057;28;20450;-68
2023/05/05 05:42:20;;;;;;;5.37;4.47;;;14.50;92.90;;;;;;5080649;28;20480;-69
2023/05/05 05:44:47;;;;;;;8.13;4.07;;;14.60;92.70;;;;;;5071930;28;20454;-68
2023/05/05 05:47:15;;;;;;;7.60;4.00;;;14.80;92.40;;;;;;5065584;28;20464;-68
2023/05/05 05:49:42;;;;;;;12.83;5.17;;;14.90;92.10;;;;;;5069714;28;20451;-68
2023/05/05 05:52:10;;;;;;;4.77;4.07;;;15.00;91.80;;;;;;5071104;28;20479;-68
2023/05/05 05:54:42;;;;;;;5.93;4.30;;;15.10;91.70;;;;;;5070262;28;20946;-67
2023/05/05 05:57:10;;;;;;;4.83;3.60;;;15.10;91.60;;;;;;5074130;28;20443;-66
2023/05/05 05:59:39;;;;;;;9.07;5.00;;;15.20;91.30;;;;;;5069486;28;20428;-68
2023/05/05 06:02:09;;;;;;;4.07;3.63;;;15.30;91.00;;;;;;5069091;28;20455;-68
2023/05/05 06:04:36;;;;;;;6.67;4.00;;;15.30;90.50;;;;;;5070625;28;20469;-67
2023/05/05 06:07:03;;;;;;;6.20;4.73;;;15.40;90.20;;;;;;5071850;28;20938;-67
2023/05/05 06:09:31;;;;;;;6.57;4.10;;;15.40;90.30;;;;;;5074312;28;20432;-68
2023/05/05 06:11:59;;;;;;;5.57;4.57;;;15.40;90.20;;;;;;5074988;28;20515;-67
2023/05/05 06:14:27;;;;;;;14.00;7.23;;;15.50;90.20;;;;;;5074504;28;20485;-67
2023/05/05 06:16:55;;;;;;;7.33;3.80;;;15.60;90.50;;;;;;5070344;28;20457;-67
2023/05/05 06:19:23;;;;;;;6.43;3.10;;;15.80;91.10;;;;;;5074113;28;20478;-67
2023/05/05 06:21:50;;;;;;;9.93;4.80;;;16.00;90.70;;;;;;5074506;28;20993;-67
2023/05/05 06:24:22;;;;;;;7.33;5.10;;;16.20;88.20;;;;;;5074337;28;20836;-67
2023/05/05 06:26:49;;;;;;;11.13;3.60;;;16.40;86.80;;;;;;5074829;28;20436;-67
2023/05/05 06:29:16;;;;;;;5.33;3.57;;;16.60;86.10;;;;;;5075011;28;20794;-67
2023/05/05 06:31:43;;;;;;;4.50;3.33;;;16.80;85.50;;;;;;5074879;28;20536;-66
2023/05/05 06:34:12;;;;;;;5.30;4.50;;;16.90;85.20;;;;;;5092490;28;20435;-66
2023/05/05 06:36:39;;;;;;;9.03;4.57;;;17.20;86.60;;;;;;5092775;28;20446;-66
2023/05/05 06:39:07;;;;;;;11.27;3.23;;;17.40;86.90;;;;;;5092696;28;20913;-67
2023/05/05 06:41:35;;;;;;;5.03;3.33;;;17.60;86.70;;;;;;5092032;28;20489;-67
2023/05/05 06:44:02;;;;;;;6.07;3.40;;;17.90;86.90;;;;;;5074284;28;20499;-67
2023/05/05 06:46:29;;;;;;;7.17;4.10;;;18.20;85.30;;;;;;5074430;28;20480;-67
2023/05/05 06:48:57;;;;;;;4.63;2.87;;;18.40;84.50;;;;;;5074883;28;20436;-67
2023/05/05 06:51:26;;;;;;;4.30;3.50;;;18.60;84.50;;;;;;5074037;28;20507;-67
2023/05/05 06:53:54;;;;;;;6.90;3.70;;;18.80;82.10;;;;;;5074091;28;20474;-67
2023/05/05 06:56:21;;;;;;;3.80;3.27;;;18.90;80.40;;;;;;5074349;28;20449;-68
2023/05/05 06:58:49;;;;;;;5.30;3.67;;;19.00;80.10;;;;;;5074245;28;20919;-67
2023/05/05 07:01:17;;;;;;;3.70;3.20;;;19.20;80.10;;;;;;5082642;28;20461;-67
2023/05/05 07:03:47;;;;;;;5.77;2.80;;;19.30;79.90;;;;;;5073954;28;20439;-67
2023/05/05 07:06:15;;;;;;;4.07;2.80;;;19.40;78.30;;;;;;5074271;28;20440;-67
2023/05/05 07:08:43;;;;;;;3.60;2.40;;;19.50;76.80;;;;;;5079961;28;20794;-67
2023/05/05 07:11:11;;;;;;;2.70;2.00;;;19.60;75.30;;;;;;5074105;28;20440;-67
2023/05/05 07:13:38;;;;;;;10.07;2.77;;;19.80;73.90;;;;;;5071973;28;20848;-67
2023/05/05 07:16:06;;;;;;;9.47;4.60;;;19.90;71.00;;;;;;5071078;28;21046;-67
2023/05/05 07:18:33;;;;;;;5.80;3.40;;;20.10;70.30;;;;;;5073955;28;20534;-67
2023/05/05 07:21:01;;;;;;;4.20;2.90;;;20.20;72.20;;;;;;5075080;28;20433;-67
2023/05/05 07:23:29;;;;;;;3.70;2.20;;;20.30;73.90;;;;;;5080788;28;20434;-67
2023/05/05 07:25:58;;;;;;;6.20;2.30;;;20.40;73.70;;;;;;5075633;28;20439;-67
2023/05/05 07:28:25;;;;;;;7.50;3.97;;;20.60;73.20;;;;;;5072247;28;20485;-67
2023/05/05 07:30:52;;;;;;;8.83;3.10;;;20.70;72.00;;;;;;5075456;28;20448;-67
2023/05/05 07:33:20;;;;;;;10.13;3.77;;;20.80;69.40;;;;;;5071856;28;20487;-67
2023/05/05 07:35:47;;;;;;;7.77;4.10;;;21.00;67.80;;;;;;5072880;28;20490;-68
2023/05/05 07:38:14;;;;;;;7.63;2.97;;;21.10;65.00;;;;;;5075980;28;20558;-67
2023/05/05 07:40:42;;;;;;;3.40;2.43;;;21.20;64.50;;;;;;5071973;28;20444;-67
2023/05/05 07:43:10;;;;;;;5.87;4.50;;;21.40;64.50;;;;;;5073803;28;20479;-67
2023/05/05 07:45:38;;;;;;;8.60;3.33;;;21.60;64.00;;;;;;5073330;28;20436;-67
2023/05/05 07:48:05;;;;;;;8.90;2.43;;;21.70;62.20;;;;;;5073049;28;20445;-67
2023/05/05 07:50:32;;;;;;;4.73;2.40;;;21.90;61.40;;;;;;5073667;28;20444;-67
2023/05/05 07:52:59;;;;;;;5.07;2.90;;;22.10;61.60;;;;;;5072669;28;20471;-67
2023/05/05 07:55:27;;;;;;;3.07;2.13;;;22.20;58.70;;;;;;5091236;28;20443;-67
2023/05/05 07:57:54;;;;;;;4.93;2.30;;;22.30;59.00;;;;;;5081201;28;20455;-67
2023/05/05 08:00:23;;;;;;;3.33;2.13;;;22.50;58.40;;;;;;5073279;28;20439;-68
2023/05/05 08:02:50;;;;;;;5.03;2.33;;;22.60;58.50;;;;;;5072096;28;20949;-68
2023/05/05 08:05:18;;;;;;;2.93;2.43;;;22.70;57.40;;;;;;5071262;28;20917;-67
2023/05/05 08:07:45;;;;;;;3.60;2.10;;;22.90;57.70;;;;;;5071911;28;21328;-67
2023/05/05 08:10:12;;;;;;;4.03;2.00;;;23.00;57.60;;;;;;5072396;28;20436;-67
2023/05/05 08:12:40;;;;;;;3.93;2.23;;;23.20;56.70;;;;;;5073592;28;20804;-67
2023/05/05 08:15:08;;;;;;;4.43;2.70;;;23.30;55.90;;;;;;5072680;28;20440;-68
2023/05/05 08:17:48;;;;;;;3.47;2.60;;;23.40;54.20;;;;;;5072519;28;20475;-67
2023/05/05 08:20:16;;;;;;;6.00;2.30;;;23.60;53.90;;;;;;5068487;28;20436;-68
2023/05/05 08:22:43;;;;;;;3.80;2.70;;;23.80;53.20;;;;;;5072371;28;20482;-67
2023/05/05 08:25:14;;;;;;;5.43;2.27;;;24.00;52.70;;;;;;5072940;28;20926;-68
2023/05/05 08:27:44;;;;;;;4.27;2.17;;;24.20;51.40;;;;;;5081950;28;20436;-68
2023/05/05 08:30:16;;;;;;;2.93;2.07;;;24.40;51.60;;;;;;5071845;28;20463;-68
2023/05/05 08:32:46;;;;;;;2.83;2.03;;;24.60;51.20;;;;;;5071771;28;20978;-68
2023/05/05 08:35:14;;;;;;;3.57;1.80;;;24.80;46.90;;;;;;5084538;28;20446;-68
2023/05/05 08:37:41;;;;;;;3.97;2.30;;;24.70;44.90;;;;;;5072791;28;20486;-68
2023/05/05 08:40:12;;;;;;;3.63;2.10;;;24.80;46.50;;;;;;5071920;28;20821;-67
2023/05/05 08:42:40;;;;;;;2.97;1.63;;;25.00;46.50;;;;;;5085271;28;20431;-68
2023/05/05 08:45:09;;;;;;;3.53;1.70;;;25.20;47.90;;;;;;5087391;28;20468;-68
2023/05/05 08:47:37;;;;;;;7.50;2.77;;;25.40;48.50;;;;;;5073501;28;20442;-67
2023/05/05 08:50:09;;;;;;;4.30;2.10;;;25.60;49.40;;;;;;5073199;28;20440;-68
2023/05/05 08:52:40;;;;;;;3.03;2.27;;;25.80;48.90;;;;;;5070231;28;20563;-68
2023/05/05 08:55:14;;;;;;;3.23;2.20;;;26.10;48.00;;;;;;5053182;28;20947;-68
2023/05/05 08:57:49;;;;;;;4.77;2.80;;;26.20;46.30;;;;;;5063319;28;20793;-68
2023/05/05 09:00:19;;;;;;;2.90;2.17;;;26.50;47.00;;;;;;5071078;28;20444;-68
2023/05/05 09:02:50;;;;;;;5.77;2.00;;;26.60;48.10;;;;;;5072790;28;20945;-68
2023/05/05 09:05:19;;;;;;;4.67;2.17;;;26.90;47.20;;;;;;5073679;28;20444;-67
2023/05/05 09:07:46;;;;;;;4.43;2.53;;;27.20;44.20;;;;;;5073515;28;20466;-68
2023/05/05 09:10:15;;;;;;;5.73;2.00;;;27.40;43.20;;;;;;5073033;28;20476;-68
2023/05/05 09:12:42;;;;;;;3.90;2.03;;;27.70;41.60;;;;;;5072980;28;20476;-67
2023/05/05 09:15:15;;;;;;;3.10;2.20;;;27.90;41.00;;;;;;5072910;28;20983;-68
2023/05/05 09:17:42;;;;;;;4.00;2.20;;;28.10;39.90;;;;;;5072570;28;20487;-68
2023/05/05 09:20:10;;;;;;;3.33;1.93;;;28.20;39.10;;;;;;5072969;28;20451;-68
2023/05/05 09:22:40;;;;;;;4.43;2.10;;;28.20;40.00;;;;;;5072759;28;20439;-68
2023/05/05 09:25:10;;;;;;;2.93;2.17;;;28.30;39.80;;;;;;5073005;28;20880;-68
2023/05/05 09:27:41;;;;;;;2.77;1.97;;;28.50;40.80;;;;;;5072559;28;20839;-68
2023/05/05 09:30:09;;;;;;;4.93;2.90;;;28.80;40.00;;;;;;5072469;28;20448;-68
2023/05/05 09:32:47;;;;;;;3.17;2.13;;;29.00;37.80;;;;;;5072328;28;20518;-68
2023/05/05 09:35:15;;;;;;;3.60;2.47;;;29.30;38.90;;;;;;5072518;28;20947;-68
2023/05/05 09:37:44;;;;;;;3.60;2.40;;;29.50;40.00;;;;;;5072617;28;20478;-68
2023/05/05 09:40:13;;;;;;;8.27;2.60;;;29.60;37.10;;;;;;5072457;28;20436;-68
2023/05/05 09:42:46;;;;;;;4.30;2.80;;;29.80;38.20;;;;;;5075373;28;20440;-68
2023/05/05 09:45:27;;;;;;;9.00;2.13;;;30.00;36.90;;;;;;5076751;28;20454;-68
2023/05/05 09:47:59;;;;;;;5.30;2.77;;;30.20;37.70;;;;;;5076638;28;20463;-68
2023/05/05 09:50:31;;;;;;;3.67;2.53;;;30.20;34.20;;;;;;5076436;28;20931;-68
2023/05/05 09:53:01;;;;;;;4.40;2.33;;;30.00;34.80;;;;;;5076939;28;20511;-68
2023/05/05 09:55:29;;;;;;;4.30;2.77;;;;;;;;;;5076733;28;20444;-68
2023/05/05 09:57:56;;;;;;;2.90;1.80;;;30.20;36.00;;;;;;5076781;28;20436;-68
2023/05/05 10:00:38;;;;;;;3.90;2.43;;;30.20;34.60;;;;;;5076592;28;20472;-68
2023/05/05 10:03:05;;;;;;;4.07;2.57;;;30.30;35.70;;;;;;5076027;28;20927;-68
2023/05/05 10:05:32;;;;;;;3.87;2.30;;;30.40;35.20;;;;;;5076238;28;20527;-68
2023/05/05 10:08:12;;;;;;;4.93;2.43;;;30.60;36.20;;;;;;5076504;28;20523;-68
2023/05/05 10:10:46;;;;;;;2.90;2.13;;;30.70;35.80;;;;;;5076326;28;20447;-69
2023/05/05 10:13:18;;;;;;;3.97;2.50;;;30.70;33.00;;;;;;5075926;28;20533;-68
2023/05/05 10:15:47;;;;;;;3.77;2.20;;;30.60;31.80;;;;;;5075876;28;20472;-68
2023/05/05 10:18:19;;;;;;;3.87;2.17;;;30.50;32.10;;;;;;5076123;28;20489;-68
2023/05/05 10:20:48;;;;;;;3.27;1.80;;;30.30;32.40;;;;;;5076619;28;20436;-68
2023/05/05 10:23:19;;;;;;;2.90;2.20;;;30.30;35.20;;;;;;5076264;28;20486;-68
2023/05/05 10:25:55;;;;;;;3.80;2.57;;;30.40;34.00;;;;;;5075737;28;20446;-68
2023/05/05 10:28:31;;;;;;;3.40;2.40;;;30.40;33.50;;;;;;5076028;28;20445;-68
2023/05/05 10:31:00;;;;;;;3.50;2.13;;;30.50;35.00;;;;;;5075908;28;20539;-68
2023/05/05 10:33:34;;;;;;;5.60;1.80;;;30.50;36.70;;;;;;5075778;28;20580;-68
2023/05/05 10:36:06;;;;;;;5.00;1.93;;;30.70;36.20;;;;;;5076060;28;20435;-69
2023/05/05 10:38:35;;;;;;;3.57;2.10;;;30.80;34.00;;;;;;5075451;28;20479;-69
2023/05/05 10:41:03;;;;;;;3.43;2.10;;;30.70;34.10;;;;;;5075993;28;20432;-68
2023/05/05 10:43:31;;;;;;;4.13;2.00;;;30.60;34.00;;;;;;5075834;28;20482;-68
2023/05/05 10:45:59;;;;;;;4.70;2.30;;;30.60;33.00;;;;;;5075679;28;20472;-68
2023/05/05 10:48:32;;;;;;;2.77;2.07;;;30.60;32.50;;;;;;5075746;28;20432;-68
2023/05/05 10:51:11;;;;;;;3.97;2.13;;;30.50;34.70;;;;;;5075878;28;20443;-68
2023/05/05 10:53:46;;;;;;;4.83;2.20;;;30.40;34.70;;;;;;5074703;28;20483;-68
2023/05/05 10:56:25;;;;;;;6.90;1.90;;;30.30;34.50;;;;;;5075396;28;20475;-68
2023/05/05 10:58:52;;;;;;;3.30;1.90;;;30.30;34.00;;;;;;5075395;28;20439;-68
2023/05/05 11:01:31;;;;;;;3.73;2.40;;;30.30;33.00;;;;;;5075204;28;20464;-68
2023/05/05 11:04:17;;;;;;;3.73;2.27;;;30.30;33.70;;;;;;5075347;28;20436;-68
2023/05/05 11:07:34;;;;;;;2.90;1.93;;;30.30;33.30;;;;;;5075316;28;20436;-68
2023/05/05 11:10:03;;;;;;;4.63;2.67;;;30.40;32.30;;;;;;5013220;28;20457;-68
2023/05/05 11:12:32;;;;;;;3.63;2.00;;;30.50;31.20;;;;;;5063668;28;20519;-68
2023/05/05 11:15:37;;;;;;;2.60;1.80;;;30.40;32.00;;;;;;5074948;28;20554;-69
2023/05/05 11:18:05;;;;;;;3.73;2.73;;;30.40;30.80;;;;;;5074933;28;20519;-68
2023/05/05 11:21:20;;;;;;;3.43;2.37;;;30.20;30.00;;;;;;5075163;28;20858;-68
2023/05/05 11:23:51;;;;;;;8.50;2.47;;;30.30;31.10;;;;;;5075167;28;20472;-68
2023/05/05 11:26:57;;;;;;;2.70;1.97;;;30.40;33.30;;;;;;5074743;28;20946;-68
2023/05/05 11:29:25;;;;;;;3.20;2.20;;;30.50;31.40;;;;;;5074956;28;20471;-69
2023/05/05 11:32:11;;;;;;;3.40;2.27;;;30.50;31.20;;;;;;5074790;28;20432;-68
2023/05/05 11:34:49;;;;;;;3.90;2.10;;;30.80;32.30;;;;;;5074588;28;20507;-68
2023/05/05 11:37:22;;;;;;;5.93;2.70;;;31.00;30.30;;;;;;5074863;28;20440;-68
2023/05/05 11:40:01;;;;;;;4.93;2.40;;;31.30;29.10;;;;;;5074903;28;20468;-68
2023/05/05 11:42:29;;;;;;;3.33;2.20;;;31.30;28.70;;;;;;5074882;28;20479;-68
2023/05/05 11:45:03;;;;;;;5.47;2.40;;;31.30;28.10;;;;;;5074875;28;20440;-68
2023/05/05 11:47:38;;;;;;;5.60;2.87;;;31.40;27.90;;;;;;5074511;28;20440;-68
2023/05/05 11:50:22;;;;;;;6.97;2.50;;;31.40;28.90;;;;;;5074208;28;20440;-69
2023/05/05 11:52:49;;;;;;;3.97;2.13;;;31.30;30.00;;;;;;5074458;28;20432;-68
2023/05/05 11:55:22;;;;;;;3.27;2.30;;;31.20;30.70;;;;;;5074339;28;20435;-68
2023/05/05 11:57:51;;;;;;;6.13;2.77;;;31.20;32.10;;;;;;5074294;28;20471;-69
2023/05/05 12:00:19;;;;;;;3.10;1.80;;;31.30;30.70;;;;;;5074173;28;20478;-68
2023/05/05 12:02:46;;;;;;;3.53;2.13;;;31.40;31.40;;;;;;5074074;28;20841;-68
2023/05/05 12:05:20;;;;;;;3.70;1.77;;;31.40;29.50;;;;;;5073889;28;20519;-68
2023/05/05 12:07:58;;;;;;;3.40;2.37;;;31.40;28.80;;;;;;5073868;28;20448;-68
2023/05/05 12:10:25;;;;;;;3.13;2.10;;;31.30;29.90;;;;;;5073760;28;20443;-68
2023/05/05 12:12:53;;;;;;;3.47;2.23;;;31.40;29.70;;;;;;5074152;28;20468;-68
2023/05/05 12:15:29;;;;;;;3.27;2.23;;;31.50;31.00;;;;;;5073599;28;20440;-68
2023/05/05 12:18:00;;;;;;;2.90;2.00;;;31.50;29.40;;;;;;5074232;28;20797;-69
2023/05/05 12:20:32;;;;;;;4.37;2.17;;;31.40;30.80;;;;;;5073537;28;21108;-68
2023/05/05 12:23:03;;;;;;;5.10;2.30;;;31.30;30.90;;;;;;5073624;28;20472;-68
2023/05/05 12:25:40;;;;;;;2.87;2.20;;;31.10;30.10;;;;;;5074060;28;20471;-68
2023/05/05 12:28:09;;;;;;;3.13;2.30;;;30.80;30.00;;;;;;5073488;28;20470;-68
2023/05/05 12:30:36;;;;;;;3.70;3.07;;;30.60;31.00;;;;;;5073733;28;20493;-68
2023/05/05 12:33:07;;;;;;;5.33;1.90;;;30.40;30.60;;;;;;5073622;28;20837;-68
2023/05/05 12:35:35;;;;;;;3.40;2.50;;;30.40;30.30;;;;;;5073380;28;20498;-68
2023/05/05 12:38:03;;;;;;;2.83;1.90;;;30.30;30.50;;;;;;5073414;28;20439;-68
2023/05/05 12:40:51;;;;;;;3.40;2.20;;;30.20;30.00;;;;;;5073446;28;20909;-68
2023/05/05 12:43:30;;;;;;;7.20;2.33;;;30.10;30.40;;;;;;5073256;28;20455;-68
2023/05/05 12:46:06;;;;;;;2.80;2.10;;;30.00;29.90;;;;;;5073641;28;20507;-68
2023/05/05 12:48:34;;;;;;;3.33;2.10;;;29.90;30.00;;;;;;5073464;28;20914;-68
2023/05/05 12:51:16;;;;;;;4.53;2.50;;;29.80;29.20;;;;;;5073477;28;20435;-68
2023/05/05 12:53:45;;;;;;;3.63;2.50;;;29.80;29.30;;;;;;5073062;28;20483;-68
2023/05/05 12:56:33;;;;;;;3.23;1.80;;;29.80;29.90;;;;;;5073202;28;20486;-68
2023/05/05 12:59:02;;;;;;;3.10;1.70;;;29.80;30.50;;;;;;5073311;28;20432;-68
2023/05/05 13:01:29;;;;;;;4.07;2.20;;;29.80;31.60;;;;;;5072921;28;20519;-68